EDT,Max TemperatureF,Mean TemperatureF,Min TemperatureF,Max Dew PointF,MeanDew PointF,Min DewpointF,Max Humidity, Mean Humidity, Min Humidity, Max Sea Level PressureIn, Mean Sea Level PressureIn, Min Sea Level PressureIn, Max VisibilityMiles, Mean VisibilityMiles, Min VisibilityMiles, Max Wind SpeedMPH, Mean Wind SpeedMPH, Max Gust SpeedMPH,PrecipitationIn, CloudCover, Events, WindDirDegrees
2011-10-1,63,53,43,40,38,35,76,59,42,30.21,30.14,30.04,10,10,10,21,9,25,0.00,3,,347
2011-10-2,68,55,41,41,36,28,89,57,24,30.25,30.18,30.12,10,10,10,15,6,21,0.00,0,,321
2011-10-3,75,60,44,48,40,34,76,53,29,30.22,30.17,30.14,10,10,10,15,4,23,0.00,1,,308
2011-10-4,79,64,49,50,46,39,86,56,25,30.30,30.24,30.19,10,10,7,7,1,16,0.00,0,,350
2011-10-5,82,66,50,54,50,46,89,60,30,30.32,30.25,30.19,10,10,9,6,1,15,0.00,0,,129
2011-10-6,85,72,58,54,49,43,86,55,24,30.29,30.25,30.22,10,10,9,8,2,21,0.00,2,,90
2011-10-7,85,70,55,56,52,49,83,59,34,30.38,30.31,30.27,10,10,8,8,1,16,0.00,1,,94
2011-10-8,82,70,57,56,53,50,86,61,35,30.42,30.34,30.30,10,10,8,9,2,13,0.00,0,,150
2011-10-9,76,65,54,54,51,46,93,66,38,30.37,30.29,30.23,10,9,4,10,4,13,0.00,5,,102
2011-10-10,82,70,58,55,53,50,72,56,39,30.23,30.15,30.05,10,10,10,10,2,15,0.00,5,,97
2011-10-11,75,66,56,56,53,50,80,63,46,30.04,29.99,29.92,10,10,9,13,4,18,0.00,5,,116
2011-10-12,72,67,61,58,57,55,84,73,61,29.91,29.84,29.73,10,10,10,14,5,22,0.00,7,,103
2011-10-13,69,64,59,61,58,56,97,84,70,29.71,29.60,29.52,10,7,1,23,6,29,0.41,8,Rain,200
2011-10-14,71,62,52,55,42,33,86,57,27,29.85,29.73,29.62,10,10,10,30,12,40,0.00,2,,265
2011-10-15,67,59,50,40,38,36,63,49,34,30.03,29.97,29.86,10,10,10,22,11,30,0.00,1,,258
2011-10-16,84,66,48,51,44,38,71,51,30,30.04,29.92,29.78,10,10,10,25,11,38,0.00,3,,198
2011-10-17,70,61,52,47,36,30,61,42,23,29.99,29.92,29.86,10,10,10,14,4,15,0.00,6,,353
2011-10-18,61,55,48,46,42,34,93,67,40,29.85,29.73,29.62,10,10,6,18,11,25,0.09,7,Rain,1
2011-10-19,49,45,41,46,44,40,93,88,83,29.62,29.49,29.41,10,7,2,23,13,30,0.19,8,Rain,291
2011-10-20,48,45,41,41,39,37,96,81,66,30.00,29.73,29.47,10,9,6,25,14,33,0.28,8,Rain,266
2011-10-21,61,50,39,39,37,36,85,62,39,30.15,30.09,30.00,10,10,10,14,4,16,0.00,1,,243
2011-10-22,65,51,36,40,36,33,92,62,31,30.20,30.14,30.09,10,10,9,9,2,15,0.00,2,,183
2011-10-23,65,53,40,49,42,37,92,70,48,30.12,30.07,30.02,10,10,10,13,4,15,T,6,Rain,151
2011-10-24,72,59,46,50,43,37,93,61,29,30.21,30.10,30.04,10,10,10,22,7,28,0.00,1,,266
2011-10-25,77,59,41,44,39,35,89,56,23,30.24,30.12,29.96,10,10,8,15,6,20,0.00,3,,168
2011-10-26,67,62,57,61,55,40,93,68,43,29.96,29.88,29.83,10,7,2,17,7,25,0.89,8,Rain,225
2011-10-27,57,50,43,55,49,38,96,79,61,30.14,29.90,29.81,10,6,2,21,9,25,0.53,7,Rain,326
2011-10-28,51,44,37,39,35,31,89,70,50,30.20,30.14,30.12,10,10,8,14,5,18,0.00,5,,42
2011-10-29,60,46,31,37,30,22,92,58,24,30.17,30.13,30.09,10,10,8,20,5,30,0.00,2,,273
2011-10-30,62,47,32,33,29,26,89,57,25,30.28,30.19,30.12,10,10,8,15,5,21,0.00,3,,154
2011-10-31,64,54,43,38,32,27,66,46,26,30.20,30.11,30.06,10,10,10,23,8,29,T,3,,211